ADDS METAR Data INFO
IDs: Format: Raw Decoded Include TAF

Data at: 0110 UTC 21 Oct 2017

KGRR 210053Z 17008KT 10SM SCT250 17/12 A3009 RMK AO2 SLP191 T01720117
KGRR 202353Z 17007KT 10SM BKN250 18/11 A3009 RMK AO2 SLP191 T01780111 10256 20178 56004
KGRR 202253Z 18007KT 10SM BKN250 21/11 A3010 RMK AO2 SLP192 T02060111
KGRR 202153Z 18008KT 10SM BKN250 24/11 A3010 RMK AO2 SLP192 T02390111
KGRR 202053Z 21009KT 10SM BKN250 24/10 A3011 RMK AO2 SLP195 T02440100 56014
KGRR 201953Z 21012KT 10SM BKN250 26/10 A3012 RMK AO2 SLP198 T02560100
KGRR 201853Z 21013KT 10SM BKN250 25/10 A3013 RMK AO2 SLP202 T02500100
KGRR 201753Z 22013G20KT 10SM SCT250 24/11 A3015 RMK AO2 SLP208 T02440111 10244 20094 58019
KGRR 201653Z 21013G20KT 10SM SCT250 23/11 A3017 RMK AO2 SLP218 T02330106
KGRR 201553Z 19009KT 10SM SCT250 21/11 A3019 RMK AO2 SLP225 T02110106
KGRR 201453Z 19008KT 10SM SCT250 18/09 A3020 RMK AO2 SLP229 T01780094 50002
KGRR 201353Z 18009KT 10SM SCT250 14/07 A3021 RMK AO2 SLP231 T01440067
KGRR 201253Z 18005KT 10SM SCT250 11/04 A3021 RMK AO2 SLP232 T01110044
KGRR 201153Z 18007KT 10SM SCT250 09/02 A3020 RMK AO2 SLP228 T00940022 10094 20056 51005
KGRR 201053Z 16005KT 10SM CLR 07/02 A3019 RMK AO2 SLP226 T00670022
KGRR 200953Z 16008KT 10SM CLR 06/02 A3019 RMK AO2 SLP224 T00610022
KGRR 200853Z AUTO 16007KT 10SM CLR 06/02 A3018 RMK AO2 SLP221 T00560022 55003
KGRR 200753Z AUTO 17003KT 10SM CLR 06/03 A3018 RMK AO2 SLP220 T00610028
KGRR 200653Z AUTO 00000KT 10SM CLR 06/02 A3018 RMK AO2 SLP222 T00610022
KGRR 200553Z AUTO 15004KT 10SM CLR 06/03 A3019 RMK AO2 SLP224 T00610033 10122 20061 50002
KGRR 200453Z AUTO 00000KT 10SM CLR 08/03 A3019 RMK AO2 SLP225 T00780028 401940067
KGRR 200353Z 17005KT 10SM FEW250 08/04 A3019 RMK AO2 SLP224 LAST T00780039
KGRR 200253Z 22003KT 10SM SCT250 09/04 A3018 RMK AO2 SLP222 T00890044 51004
KGRR 200153Z 23005KT 10SM SCT250 11/03 A3018 RMK AO2 SLP221 T01060033
KGRR 200053Z 25007KT 10SM SCT250 11/02 A3018 RMK AO2 SLP221 T01060022
KGRR 192353Z 25006KT 10SM BKN250 12/02 A3017 RMK AO2 SLP218 T01220017 10194 20117 53006
KGRR 192253Z 25007KT 10SM BKN250 13/02 A3016 RMK AO2 SLP213 T01330017
KGRR 192153Z 28009KT 10SM BKN250 17/M01 A3015 RMK AO2 SLP210 T01671011
KGRR 192053Z 30010KT 10SM BKN250 18/00 A3015 RMK AO2 SLP210 T01780000 53004
KGRR 191953Z 29010G18KT 10SM BKN250 18/00 A3014 RMK AO2 SLP205 T01830000
KGRR 191853Z 28009KT 10SM BKN250 18/M01 A3014 RMK AO2 SLP205 T01831006
KGRR 191753Z 31009KT 10SM BKN250 19/M01 A3014 RMK AO2 SLP206 T01891011 10189 20106 50006
KGRR 191653Z 27010KT 10SM BKN250 18/M02 A3015 RMK AO2 SLP209 T01831017
KGRR 191553Z 28010KT 10SM BKN250 17/01 A3014 RMK AO2 SLP206 T01720011
KGRR 191453Z 31009KT 10SM BKN250 16/03 A3012 RMK AO2 SLP200 T01610033 51027
KGRR 191353Z 29009KT 10SM BKN250 15/09 A3010 RMK AO2 SLP194 T01500089